Time;durP1;ratioP1;P1;durP2;ratioP2;P2;SDS_P1;SDS_P2;PMS_P1;PMS_P2;Temp;Humidity;BMP_temperature;BMP_pressure;BME280_temperature;BME280_humidity;BME280_pressure;Samples;Min_cycle;Max_cycle;Signal;HPM_P1;HPM_P2
2023/04/20 00:01:47;;;;;;;2.90;1.48;;;7.40;98.50;;;;;;5077195;28;20027;-62
2023/04/20 00:04:16;;;;;;;4.57;1.50;;;7.40;98.10;;;;;;5077105;28;20033;-62
2023/04/20 00:06:43;;;;;;;5.50;1.75;;;7.40;98.60;;;;;;5063005;28;20009;-62
2023/04/20 00:09:11;;;;;;;8.00;2.00;;;7.40;98.50;;;;;;5077223;28;20019;-62
2023/04/20 00:11:36;;;;;;;1.75;1.38;;;7.40;99.10;;;;;;5076591;28;20036;-62
2023/04/20 00:14:02;;;;;;;4.20;1.57;;;7.30;98.60;;;;;;5077166;28;20069;-62
2023/04/20 00:16:28;;;;;;;2.90;1.50;;;7.30;98.70;;;;;;5075447;28;20024;-62
2023/04/20 00:18:54;;;;;;;2.33;1.47;;;7.20;99.10;;;;;;5076012;28;20021;-62
2023/04/20 00:21:23;;;;;;;4.03;1.70;;;7.30;99.10;;;;;;5076978;28;20070;-62
2023/04/20 00:23:49;;;;;;;2.38;1.42;;;7.20;99.30;;;;;;5077002;28;20056;-62
2023/04/20 00:26:16;;;;;;;3.22;1.70;;;7.20;98.90;;;;;;5076846;28;20021;-62
2023/04/20 00:28:42;;;;;;;1.83;1.67;;;7.20;99.40;;;;;;5076269;28;20072;-69
2023/04/20 00:31:08;;;;;;;3.70;1.87;;;7.20;99.30;;;;;;5076661;28;20033;-62
2023/04/20 00:33:33;;;;;;;2.83;1.73;;;7.20;99.50;;;;;;5076607;28;20608;-62
2023/04/20 00:35:59;;;;;;;3.03;1.67;;;7.20;99.90;;;;;;5062387;28;20020;-62
2023/04/20 00:38:26;;;;;;;7.67;2.10;;;7.20;99.90;;;;;;5076617;28;20033;-62
2023/04/20 00:40:53;;;;;;;;;;;7.20;99.90;;;;;;5076528;28;20021;-62
2023/04/20 00:43:20;;;;;;;2.85;2.30;;;7.30;99.90;;;;;;5076604;28;19912;-62
2023/04/20 00:45:45;;;;;;;;;;;7.30;99.90;;;;;;5076618;28;20029;-64
2023/04/20 00:48:12;;;;;;;4.70;1.92;;;7.30;99.90;;;;;;5076394;28;20416;-62
2023/04/20 00:50:39;;;;;;;3.00;2.00;;;7.30;99.90;;;;;;5076192;28;20136;-62
2023/04/20 00:53:05;;;;;;;;;;;7.40;99.90;;;;;;5062689;28;20021;-62
2023/04/20 00:55:31;;;;;;;;;;;7.40;99.90;;;;;;5076535;28;20054;-62
2023/04/20 00:57:57;;;;;;;2.60;1.90;;;7.40;99.90;;;;;;5075539;28;19966;-62
2023/04/20 01:00:24;;;;;;;9.25;2.17;;;7.50;99.90;;;;;;5076290;28;20055;-62
2023/04/20 01:02:50;;;;;;;4.35;2.00;;;7.40;99.90;;;;;;5075981;28;20068;-62
2023/04/20 01:05:16;;;;;;;4.37;2.00;;;7.40;99.90;;;;;;5076085;28;20020;-62
2023/04/20 01:07:42;;;;;;;2.67;2.07;;;7.40;99.90;;;;;;5075559;28;20142;-62
2023/04/20 01:10:08;;;;;;;6.27;2.13;;;7.50;99.90;;;;;;5075118;28;20024;-62
2023/04/20 01:12:35;;;;;;;7.18;2.30;;;7.50;99.90;;;;;;5075828;28;20300;-62
2023/04/20 01:15:02;;;;;;;3.85;2.20;;;7.50;99.90;;;;;;5075601;28;20032;-62
2023/04/20 01:17:28;;;;;;;7.95;1.92;;;7.60;99.90;;;;;;5075890;28;20031;-62
2023/04/20 01:19:54;;;;;;;7.00;2.50;;;7.60;99.90;;;;;;5075319;28;20024;-62
2023/04/20 01:22:20;;;;;;;6.68;2.38;;;7.70;99.90;;;;;;5075734;28;20024;-62
2023/04/20 01:24:46;;;;;;;4.63;1.87;;;7.60;99.90;;;;;;5075355;28;20055;-62
2023/04/20 01:27:13;;;;;;;4.18;2.30;;;7.60;99.90;;;;;;5075590;28;20036;-62
2023/04/20 01:29:39;;;;;;;5.47;2.38;;;7.60;99.90;;;;;;5075418;28;20350;-62
2023/04/20 01:32:05;;;;;;;3.60;1.43;;;7.60;99.90;;;;;;5074863;28;20104;-62
2023/04/20 01:34:30;;;;;;;3.57;2.00;;;7.70;99.90;;;;;;5075810;28;20024;-62
2023/04/20 01:36:56;;;;;;;3.23;2.27;;;7.90;99.90;;;;;;5075027;28;20043;-62
2023/04/20 01:39:22;;;;;;;4.80;2.47;;;7.90;99.90;;;;;;5075263;28;20024;-62
2023/04/20 01:41:48;;;;;;;7.23;2.37;;;8.00;99.90;;;;;;5073453;28;20028;-62
2023/04/20 01:44:13;;;;;;;3.43;2.03;;;7.90;99.90;;;;;;5075215;28;20031;-62
2023/04/20 01:46:39;;;;;;;6.53;2.90;;;8.00;99.90;;;;;;5074469;28;20103;-62
2023/04/20 01:49:06;;;;;;;2.77;1.90;;;7.90;99.90;;;;;;5075265;28;20016;-62
2023/04/20 01:51:33;;;;;;;4.45;2.50;;;7.90;99.90;;;;;;5074062;28;20427;-62
2023/04/20 01:54:00;;;;;;;4.70;2.33;;;7.80;99.90;;;;;;5074914;28;20032;-62
2023/04/20 01:56:26;;;;;;;5.90;2.25;;;7.80;99.90;;;;;;5073872;28;20149;-62
2023/04/20 01:58:51;;;;;;;4.37;2.57;;;7.90;99.90;;;;;;5075131;28;20036;-62
2023/04/20 02:01:17;;;;;;;7.03;2.90;;;8.00;99.90;;;;;;5075361;28;20416;-62
2023/04/20 02:03:43;;;;;;;6.30;2.33;;;8.00;99.90;;;;;;5075117;28;20107;-62
2023/04/20 02:06:09;;;;;;;9.17;2.70;;;8.10;99.90;;;;;;5074451;28;20074;-62
2023/04/20 02:08:35;;;;;;;9.47;2.30;;;8.20;99.90;;;;;;5075246;28;20017;-62
2023/04/20 02:11:00;;;;;;;6.68;2.40;;;8.30;99.90;;;;;;5074681;28;20267;-62
2023/04/20 02:13:26;;;;;;;5.67;2.37;;;8.30;99.90;;;;;;5075375;28;20032;-62
2023/04/20 02:15:52;;;;;;;5.83;2.80;;;8.30;99.90;;;;;;5074352;28;20036;-61
2023/04/20 02:18:18;;;;;;;3.45;2.38;;;8.40;99.90;;;;;;5074958;28;20032;-61
2023/04/20 02:20:44;;;;;;;2.78;2.08;;;8.40;99.90;;;;;;5074952;28;20028;-74
2023/04/20 02:23:11;;;;;;;4.75;2.20;;;8.50;99.90;;;;;;5074323;28;20362;-74
2023/04/20 02:25:37;;;;;;;3.00;2.10;;;8.60;99.90;;;;;;5075026;28;20292;-61
2023/04/20 02:28:03;;;;;;;3.43;1.83;;;8.60;99.90;;;;;;5074894;28;20316;-62
2023/04/20 02:30:28;;;;;;;3.17;1.83;;;8.60;99.90;;;;;;5074500;28;20434;-62
2023/04/20 02:32:54;;;;;;;12.13;2.00;;;8.60;99.90;;;;;;5074963;28;20024;-62
2023/04/20 02:35:20;;;;;;;3.13;1.63;;;8.70;99.90;;;;;;5074596;28;20067;-62
2023/04/20 02:37:46;;;;;;;3.13;2.03;;;8.70;99.90;;;;;;5074576;28;20300;-62
2023/04/20 02:40:13;;;;;;;4.10;2.20;;;8.70;99.90;;;;;;5074513;28;20415;-62
2023/04/20 02:42:38;;;;;;;8.15;2.08;;;8.70;99.90;;;;;;5074722;28;20311;-62
2023/04/20 02:45:04;;;;;;;2.73;1.80;;;8.60;99.90;;;;;;5074778;28;20054;-62
2023/04/20 02:47:30;;;;;;;3.72;1.88;;;8.60;99.90;;;;;;5074200;28;20020;-76
2023/04/20 02:49:56;;;;;;;5.30;1.90;;;8.50;99.90;;;;;;5074681;28;20021;-62
2023/04/20 02:52:22;;;;;;;4.83;1.77;;;8.50;99.90;;;;;;5074414;28;20020;-62
2023/04/20 02:54:47;;;;;;;5.75;1.30;;;8.40;99.90;;;;;;5074917;28;20013;-62
2023/04/20 02:57:13;;;;;;;4.23;1.53;;;8.40;99.90;;;;;;5074424;28;20469;-62
2023/04/20 02:59:39;;;;;;;3.10;1.63;;;8.50;99.90;;;;;;5074908;28;20467;-62
2023/04/20 03:02:05;;;;;;;14.77;2.47;;;8.60;99.90;;;;;;5074629;28;20032;-62
2023/04/20 03:04:30;;;;;;;3.42;1.08;;;8.70;99.90;;;;;;5074136;28;20514;-76
2023/04/20 03:06:57;;;;;;;10.13;2.10;;;8.70;99.90;;;;;;5074629;28;20051;-62
2023/04/20 03:09:24;;;;;;;2.63;1.67;;;8.70;99.90;;;;;;5074469;28;20024;-62
2023/04/20 03:11:50;;;;;;;9.15;2.45;;;8.70;99.90;;;;;;5074287;28;20021;-62
2023/04/20 03:14:15;;;;;;;2.77;1.37;;;8.80;99.90;;;;;;5074293;28;20028;-62
2023/04/20 03:16:41;;;;;;;3.40;1.50;;;8.80;99.90;;;;;;5074192;28;20025;-62
2023/04/20 03:19:07;;;;;;;6.50;1.60;;;8.80;99.90;;;;;;5073201;28;20029;-62
2023/04/20 03:21:33;;;;;;;2.40;1.40;;;8.90;99.90;;;;;;5074291;28;20025;-62
2023/04/20 03:23:59;;;;;;;1.80;1.07;;;8.90;99.90;;;;;;5074225;28;20339;-62
2023/04/20 03:26:25;;;;;;;3.20;1.95;;;8.90;99.90;;;;;;5074272;28;20403;-62
2023/04/20 03:28:51;;;;;;;0.93;0.80;;;8.90;99.90;;;;;;5073923;28;20059;-62
2023/04/20 03:31:17;;;;;;;0.28;0.28;;;9.00;99.90;;;;;;5074287;28;20521;-62
2023/04/20 03:33:42;;;;;;;3.33;1.20;;;9.00;99.90;;;;;;5075699;28;20032;-62
2023/04/20 03:36:08;;;;;;;4.10;1.80;;;9.00;99.90;;;;;;5077853;28;20021;-62
2023/04/20 03:38:34;;;;;;;3.13;0.93;;;9.00;99.90;;;;;;5077424;28;20025;-76
2023/04/20 03:41:00;;;;;;;2.03;1.13;;;9.00;99.90;;;;;;5077592;28;20033;-62
2023/04/20 03:43:26;;;;;;;1.13;1.03;;;9.00;99.90;;;;;;5077525;28;20032;-62
2023/04/20 03:45:51;;;;;;;1.30;1.17;;;9.00;99.90;;;;;;5077259;28;20025;-61
2023/04/20 03:48:17;;;;;;;9.33;1.37;;;9.00;99.90;;;;;;5077610;28;20404;-61
2023/04/20 03:50:43;;;;;;;2.65;1.13;;;9.00;99.90;;;;;;5077295;28;20029;-61
2023/04/20 03:53:08;;;;;;;1.57;1.07;;;8.90;99.90;;;;;;5077395;28;20032;-62
2023/04/20 03:55:34;;;;;;;1.80;1.17;;;9.00;99.90;;;;;;5077342;28;20032;-74
2023/04/20 03:58:00;;;;;;;5.23;1.97;;;8.90;99.90;;;;;;5077475;28;20031;-62
2023/04/20 04:00:26;;;;;;;2.17;1.20;;;9.00;99.90;;;;;;5077340;28;20407;-62
2023/04/20 04:02:51;;;;;;;4.10;1.93;;;8.90;99.90;;;;;;5076788;28;20043;-61
2023/04/20 04:05:17;;;;;;;2.40;1.00;;;8.90;99.90;;;;;;5077314;28;20021;-62
2023/04/20 04:07:43;;;;;;;3.83;1.40;;;8.90;99.90;;;;;;5077009;28;20107;-61
2023/04/20 04:10:10;;;;;;;7.50;1.47;;;8.90;99.90;;;;;;5077274;28;20027;-61
2023/04/20 04:12:35;;;;;;;;;;;8.80;99.90;;;;;;5077214;28;20035;-61
2023/04/20 04:15:01;;;;;;;1.87;1.30;;;8.80;99.90;;;;;;5077191;28;19913;-62
2023/04/20 04:17:27;;;;;;;1.87;1.37;;;8.80;99.90;;;;;;5077050;28;20028;-62
2023/04/20 04:19:53;;;;;;;1.83;1.30;;;8.80;99.90;;;;;;5076673;28;20255;-62
2023/04/20 04:22:18;;;;;;;3.70;1.40;;;8.80;99.90;;;;;;5076872;28;20086;-78
2023/04/20 04:24:44;;;;;;;4.03;1.43;;;8.80;99.90;;;;;;5075678;28;20070;-62
2023/04/20 04:27:13;;;;;;;2.80;1.23;;;8.70;99.90;;;;;;5076583;28;20048;-62
2023/04/20 04:29:40;;;;;;;4.13;1.67;;;8.80;99.90;;;;;;5076713;28;20404;-62
2023/04/20 04:32:06;;;;;;;3.00;1.05;;;8.80;99.90;;;;;;5075186;28;20435;-62
2023/04/20 04:34:33;;;;;;;0.75;0.45;;;8.80;99.90;;;;;;5075693;28;20032;-61
2023/04/20 04:37:00;;;;;;;1.15;0.82;;;8.80;99.90;;;;;;5076573;28;20033;-61
2023/04/20 04:39:26;;;;;;;;;;;8.80;99.90;;;;;;5077345;28;20036;-62
2023/04/20 04:41:52;;;;;;;2.28;1.55;;;8.80;99.90;;;;;;5076221;28;19999;-62
2023/04/20 04:44:18;;;;;;;2.70;1.50;;;8.80;99.90;;;;;;5075521;28;20107;-62
2023/04/20 04:46:44;;;;;;;2.57;1.20;;;8.80;99.90;;;;;;5076241;28;20025;-62
2023/04/20 04:49:10;;;;;;;0.93;0.77;;;8.80;99.90;;;;;;5076091;28;20017;-62
2023/04/20 04:51:36;;;;;;;3.22;0.68;;;8.80;99.90;;;;;;5075146;28;20032;-62
2023/04/20 04:54:02;;;;;;;3.33;1.00;;;8.80;99.90;;;;;;5075812;28;20081;-62
2023/04/20 04:56:28;;;;;;;5.67;1.77;;;8.90;99.90;;;;;;5076406;28;20025;-74
2023/04/20 04:58:53;;;;;;;3.70;1.47;;;8.90;99.90;;;;;;5076170;28;20021;-62
2023/04/20 05:01:20;;;;;;;2.80;1.70;;;8.90;99.90;;;;;;5076244;28;20057;-62
2023/04/20 05:03:46;;;;;;;5.53;1.60;;;8.90;99.90;;;;;;5076029;28;20024;-62
2023/04/20 05:06:11;;;;;;;2.27;1.00;;;9.00;99.90;;;;;;5075811;28;20062;-62
2023/04/20 05:08:37;;;;;;;0.30;0.30;;;9.00;99.90;;;;;;5075797;28;20308;-61
2023/04/20 05:11:03;;;;;;;1.07;0.53;;;8.90;99.90;;;;;;5075449;28;20021;-62
2023/04/20 05:13:28;;;;;;;3.53;0.93;;;9.00;99.90;;;;;;5076171;28;20025;-62
2023/04/20 05:15:54;;;;;;;1.13;0.90;;;8.90;99.90;;;;;;5075587;28;20029;-62
2023/04/20 05:18:20;;;;;;;5.90;0.80;;;8.90;99.90;;;;;;5075891;28;20315;-62
2023/04/20 05:20:45;;;;;;;5.53;1.40;;;8.90;99.90;;;;;;5075886;28;20029;-61
2023/04/20 05:23:11;;;;;;;6.43;1.73;;;8.90;99.90;;;;;;5075565;28;20032;-75
2023/04/20 05:25:37;;;;;;;1.57;0.63;;;8.90;99.90;;;;;;5075760;28;20446;-62
2023/04/20 05:28:02;;;;;;;12.43;1.70;;;8.80;99.90;;;;;;5075517;28;20017;-61
2023/04/20 05:30:28;;;;;;;7.97;1.40;;;8.80;99.90;;;;;;5075341;28;20070;-62
2023/04/20 05:32:54;;;;;;;8.47;1.53;;;8.70;99.90;;;;;;5075536;28;20070;-62
2023/04/20 05:35:20;;;;;;;2.50;1.50;;;8.80;99.90;;;;;;5075360;28;20024;-62
2023/04/20 05:37:46;;;;;;;3.75;1.30;;;8.70;99.90;;;;;;5075828;28;20062;-62
2023/04/20 05:40:12;;;;;;;5.97;1.73;;;8.60;99.90;;;;;;5075003;28;20398;-62
2023/04/20 05:42:38;;;;;;;8.07;1.30;;;8.60;99.90;;;;;;5074157;28;20020;-62
2023/04/20 05:45:05;;;;;;;2.57;1.67;;;8.50;99.90;;;;;;5075386;28;20081;-62
2023/04/20 05:47:30;;;;;;;5.45;1.52;;;8.50;99.90;;;;;;5075134;28;20020;-62
2023/04/20 05:49:56;;;;;;;6.30;1.37;;;8.50;99.90;;;;;;5075439;28;20355;-61
2023/04/20 05:52:22;;;;;;;4.38;1.65;;;8.50;99.90;;;;;;5074996;28;20015;-62
2023/04/20 05:54:48;;;;;;;2.67;1.47;;;8.50;99.90;;;;;;5075193;28;20020;-62
2023/04/20 05:57:14;;;;;;;16.63;2.08;;;8.40;99.90;;;;;;5074567;28;20039;-62
2023/04/20 05:59:40;;;;;;;2.37;1.70;;;8.40;99.90;;;;;;5075316;28;20412;-62
2023/04/20 06:02:06;;;;;;;0.80;0.80;;;8.40;99.90;;;;;;5075362;28;20032;-62
2023/04/20 06:04:32;;;;;;;2.33;1.03;;;8.50;99.90;;;;;;5074789;28;20475;-62
2023/04/20 06:06:59;;;;;;;10.67;1.43;;;8.40;99.90;;;;;;5075535;28;20029;-74
2023/04/20 06:09:24;;;;;;;5.22;1.88;;;8.30;99.90;;;;;;5074611;28;20012;-62
2023/04/20 06:11:50;;;;;;;2.40;1.23;;;8.20;99.90;;;;;;5075147;28;20522;-62
2023/04/20 06:14:16;;;;;;;5.63;1.63;;;8.10;99.90;;;;;;5074389;28;20032;-62
2023/04/20 06:16:41;;;;;;;1.97;1.40;;;8.10;99.90;;;;;;5075076;28;20095;-67
2023/04/20 06:19:07;;;;;;;5.20;1.30;;;8.10;99.90;;;;;;5075157;28;20055;-62
2023/04/20 06:21:34;;;;;;;1.50;1.10;;;8.00;99.90;;;;;;5074533;28;20119;-61
2023/04/20 06:24:01;;;;;;;5.13;2.00;;;8.00;99.90;;;;;;5074811;28;20028;-62
2023/04/20 06:26:26;;;;;;;;;;;7.90;99.90;;;;;;5075453;28;20105;-62
2023/04/20 06:28:52;;;;;;;2.67;1.40;;;7.90;99.90;;;;;;5074423;28;19956;-62
2023/04/20 06:31:18;;;;;;;1.40;0.50;;;7.80;99.90;;;;;;5073530;28;20246;-61
2023/04/20 06:33:44;;;;;;;2.88;1.25;;;7.70;99.90;;;;;;5074506;28;20021;-62
2023/04/20 06:36:10;;;;;;;1.03;0.67;;;7.60;99.90;;;;;;5075030;28;20039;-62
2023/04/20 06:38:36;;;;;;;5.53;1.80;;;7.50;99.90;;;;;;5074435;28;20038;-61
2023/04/20 06:41:01;;;;;;;1.57;1.20;;;7.50;99.90;;;;;;5074783;28;20388;-62
2023/04/20 06:43:28;;;;;;;4.37;1.60;;;7.50;99.90;;;;;;5074588;28;20024;-73
2023/04/20 06:45:54;;;;;;;4.45;1.50;;;7.60;99.90;;;;;;5073165;28;20100;-62
2023/04/20 06:48:19;;;;;;;3.93;1.07;;;7.60;99.90;;;;;;5074614;28;20109;-61
2023/04/20 06:50:49;;;;;;;2.20;1.50;;;7.60;99.90;;;;;;5074438;28;20094;-74
2023/04/20 06:53:15;;;;;;;2.45;1.30;;;7.60;99.90;;;;;;5074497;28;20056;-62
2023/04/20 06:55:41;;;;;;;2.70;1.65;;;7.60;99.90;;;;;;5074292;28;20351;-61
2023/04/20 06:58:07;;;;;;;3.10;1.60;;;7.60;99.90;;;;;;5074774;28;20036;-62
2023/04/20 07:00:32;;;;;;;6.75;1.63;;;7.60;99.90;;;;;;5074164;28;20103;-62
2023/04/20 07:02:58;;;;;;;2.73;1.53;;;7.60;99.90;;;;;;5074815;28;20074;-62
2023/04/20 07:05:27;;;;;;;2.30;1.27;;;7.60;99.90;;;;;;5074318;28;20021;-62
2023/04/20 07:07:53;;;;;;;2.65;1.48;;;7.60;99.90;;;;;;5074581;28;20021;-63
2023/04/20 07:10:19;;;;;;;0.90;0.87;;;7.60;99.90;;;;;;5078178;28;20020;-61
2023/04/20 07:12:45;;;;;;;6.47;1.70;;;7.70;99.90;;;;;;5077930;28;20047;-62
2023/04/20 07:15:11;;;;;;;0.70;0.70;;;7.60;99.90;;;;;;5078203;28;20024;-62
2023/04/20 07:17:37;;;;;;;4.10;1.77;;;7.60;99.90;;;;;;5077763;28;20013;-75
2023/04/20 07:20:07;;;;;;;4.03;1.03;;;7.50;99.90;;;;;;5078356;28;20407;-62
2023/04/20 07:22:37;;;;;;;4.35;2.20;;;7.30;99.90;;;;;;5077901;28;20074;-62
2023/04/20 07:25:04;;;;;;;7.00;1.90;;;7.10;99.90;;;;;;5074091;28;20044;-62
2023/04/20 07:27:34;;;;;;;3.50;2.00;;;6.90;99.90;;;;;;5077820;28;20024;-62
2023/04/20 07:30:00;;;;;;;1.15;1.00;;;6.80;99.90;;;;;;5077465;28;20040;-62
2023/04/20 07:32:26;;;;;;;3.65;1.48;;;6.60;99.90;;;;;;5078093;28;20028;-62
2023/04/20 07:34:52;;;;;;;2.60;1.50;;;6.50;99.90;;;;;;5077857;28;20028;-61
2023/04/20 07:37:19;;;;;;;;;;;6.40;99.90;;;;;;5077934;28;20043;-62
2023/04/20 07:39:44;;;;;;;4.07;2.10;;;6.40;99.90;;;;;;5077993;28;19909;-62
2023/04/20 07:42:10;;;;;;;3.27;2.23;;;6.40;99.90;;;;;;5077437;28;20021;-62
2023/04/20 07:44:36;;;;;;;4.57;1.93;;;6.40;99.90;;;;;;5077555;28;20058;-61
2023/04/20 07:47:02;;;;;;;3.70;1.53;;;6.30;99.90;;;;;;5077512;28;20330;-61
2023/04/20 07:49:28;;;;;;;5.03;1.93;;;6.20;99.90;;;;;;5076422;28;20020;-76
2023/04/20 07:51:54;;;;;;;2.53;1.95;;;6.20;99.90;;;;;;5077479;28;20027;-62
2023/04/20 07:54:19;;;;;;;5.23;2.40;;;6.20;99.90;;;;;;5077161;28;20028;-61
2023/04/20 07:56:45;;;;;;;8.17;2.40;;;6.10;99.90;;;;;;5077345;28;20032;-62
2023/04/20 07:59:11;;;;;;;2.10;1.47;;;6.20;99.90;;;;;;5075976;28;20478;-74
2023/04/20 08:01:37;;;;;;;4.87;2.07;;;6.10;99.90;;;;;;5077376;28;20024;-62
2023/04/20 08:04:03;;;;;;;7.00;2.92;;;6.10;99.90;;;;;;5076934;28;20052;-62
2023/04/20 08:06:28;;;;;;;11.07;2.27;;;6.10;99.90;;;;;;5077319;28;20060;-73
2023/04/20 08:08:54;;;;;;;5.97;2.80;;;6.10;99.90;;;;;;5077067;28;20024;-62
2023/04/20 08:11:20;;;;;;;3.70;1.57;;;6.10;99.90;;;;;;5076869;28;20020;-62
2023/04/20 08:13:46;;;;;;;7.77;2.97;;;6.10;99.90;;;;;;5077352;28;20347;-62
2023/04/20 08:16:12;;;;;;;5.03;3.03;;;6.20;99.90;;;;;;5076906;28;20028;-62
2023/04/20 08:18:38;;;;;;;9.07;2.83;;;6.20;99.90;;;;;;5076874;28;20430;-62
2023/04/20 08:21:03;;;;;;;6.13;3.13;;;6.20;99.90;;;;;;5076862;28;20020;-61
2023/04/20 08:23:29;;;;;;;3.87;2.30;;;6.20;99.90;;;;;;5076867;28;20021;-62
2023/04/20 08:25:55;;;;;;;4.87;3.07;;;6.30;99.90;;;;;;5075664;28;20111;-62
2023/04/20 08:28:22;;;;;;;4.07;2.13;;;6.20;99.90;;;;;;5076527;28;20044;-62
2023/04/20 08:30:48;;;;;;;6.22;3.05;;;6.20;99.90;;;;;;5076757;28;20024;-61
2023/04/20 08:33:14;;;;;;;5.47;2.90;;;6.20;99.90;;;;;;5076627;28;20086;-62
2023/04/20 08:35:40;;;;;;;3.73;2.50;;;6.20;99.90;;;;;;5076143;28;20068;-61
2023/04/20 08:38:06;;;;;;;13.53;3.30;;;6.20;99.90;;;;;;5076788;28;20044;-61
2023/04/20 08:40:31;;;;;;;5.23;3.03;;;6.30;99.90;;;;;;5058629;28;20043;-62
2023/04/20 08:43:00;;;;;;;10.70;3.20;;;6.40;99.90;;;;;;5076305;28;20028;-62
2023/04/20 08:45:27;;;;;;;1.08;1.02;;;6.40;99.90;;;;;;5076593;28;20024;-62
2023/04/20 08:47:53;;;;;;;5.97;3.78;;;6.40;99.90;;;;;;5076519;28;20350;-61
2023/04/20 08:50:19;;;;;;;4.83;2.03;;;6.30;99.90;;;;;;5076338;28;20032;-62
2023/04/20 08:52:45;;;;;;;4.57;2.78;;;6.40;99.90;;;;;;5076332;28;20429;-62
2023/04/20 08:55:20;;;;;;;6.83;2.77;;;6.30;99.90;;;;;;5076523;28;20253;-74
2023/04/20 08:57:48;;;;;;;7.03;2.83;;;6.20;99.90;;;;;;5075633;28;20017;-62
2023/04/20 09:00:15;;;;;;;11.85;3.65;;;6.20;99.90;;;;;;5076230;28;20029;-62
2023/04/20 09:02:51;;;;;;;6.45;2.78;;;6.20;99.90;;;;;;5075911;28;20016;-61
2023/04/20 09:05:28;;;;;;;8.20;3.47;;;6.30;99.90;;;;;;5076505;28;20051;-62
2023/04/20 09:07:56;;;;;;;9.70;4.07;;;6.30;99.90;;;;;;5075954;28;20021;-62
2023/04/20 09:10:25;;;;;;;5.32;2.22;;;6.40;99.90;;;;;;5075958;28;20040;-62
2023/04/20 09:12:51;;;;;;;6.75;3.10;;;6.40;99.90;;;;;;5075368;28;20441;-62
2023/04/20 09:15:27;;;;;;;6.57;3.40;;;6.50;99.90;;;;;;5075955;28;20301;-62
2023/04/20 09:17:54;;;;;;;8.55;3.60;;;6.70;99.90;;;;;;5075711;28;20020;-69
2023/04/20 09:20:31;;;;;;;4.50;2.17;;;6.80;99.90;;;;;;5074858;28;20025;-62
2023/04/20 09:22:57;;;;;;;8.05;3.25;;;6.70;99.90;;;;;;5075232;28;20391;-62
2023/04/20 09:25:27;;;;;;;8.47;4.10;;;6.70;99.90;;;;;;5075836;28;20044;-62
2023/04/20 09:28:00;;;;;;;6.60;3.80;;;6.70;99.90;;;;;;5075421;28;20035;-62
2023/04/20 09:30:39;;;;;;;10.25;3.80;;;6.80;99.90;;;;;;5074994;28;20136;-62
2023/04/20 09:33:09;;;;;;;7.60;3.30;;;6.70;99.90;;;;;;5075390;28;20027;-62
2023/04/20 09:35:37;;;;;;;7.88;3.20;;;6.70;99.90;;;;;;5075199;28;20070;-61
2023/04/20 09:38:03;;;;;;;8.23;3.65;;;6.80;99.90;;;;;;5075574;28;20320;-62
2023/04/20 09:40:29;;;;;;;5.43;3.38;;;7.00;99.90;;;;;;5075511;28;20167;-62
2023/04/20 09:42:58;;;;;;;4.53;2.50;;;7.20;99.90;;;;;;5075430;28;20374;-62
2023/04/20 09:45:24;;;;;;;3.78;2.35;;;7.10;99.90;;;;;;5075032;28;20419;-62
2023/04/20 09:47:52;;;;;;;7.53;4.18;;;7.10;99.90;;;;;;5075052;28;20069;-75
2023/04/20 09:50:20;;;;;;;2.67;2.17;;;7.30;99.90;;;;;;5075308;28;20048;-62
2023/04/20 09:52:49;;;;;;;7.20;2.92;;;7.40;99.90;;;;;;5075210;28;20021;-62
2023/04/20 09:55:15;;;;;;;6.38;3.20;;;7.30;99.90;;;;;;5075287;28;20021;-62
2023/04/20 09:57:43;;;;;;;2.95;1.98;;;7.40;99.90;;;;;;5074872;28;20024;-61
2023/04/20 10:00:09;;;;;;;7.65;2.80;;;7.40;99.90;;;;;;5075441;28;20104;-61
2023/04/20 10:02:36;;;;;;;1.77;1.60;;;7.50;99.90;;;;;;5075029;28;20074;-61
2023/04/20 10:05:02;;;;;;;7.03;3.50;;;7.50;99.90;;;;;;5074995;28;20061;-61
2023/04/20 10:07:30;;;;;;;8.88;2.90;;;7.40;99.90;;;;;;5074786;28;20097;-61
2023/04/20 10:10:11;;;;;;;6.50;3.72;;;7.50;99.90;;;;;;5075237;28;20055;-62
2023/04/20 10:12:50;;;;;;;6.55;3.13;;;7.70;99.90;;;;;;5074848;28;20031;-62
2023/04/20 10:15:16;;;;;;;5.25;1.90;;;7.80;99.90;;;;;;5075088;28;20020;-61
2023/04/20 10:17:42;;;;;;;5.07;2.40;;;8.10;99.90;;;;;;5074721;28;20032;-62
2023/04/20 10:20:21;;;;;;;5.70;3.50;;;8.20;99.90;;;;;;5075319;28;20078;-61
2023/04/20 10:22:47;;;;;;;5.22;2.92;;;8.20;99.90;;;;;;5074370;28;20431;-61
2023/04/20 10:25:19;;;;;;;5.33;2.80;;;8.10;99.90;;;;;;5075139;28;20048;-62
2023/04/20 10:27:58;;;;;;;10.32;3.72;;;8.10;99.90;;;;;;5074648;28;20099;-61
2023/04/20 10:30:25;;;;;;;6.55;2.83;;;8.10;99.90;;;;;;5074848;28;20363;-75
2023/04/20 10:33:08;;;;;;;6.85;2.80;;;8.20;99.90;;;;;;5073630;28;20162;-62
2023/04/20 10:35:54;;;;;;;9.23;3.47;;;8.30;99.90;;;;;;5074670;28;20017;-61
2023/04/20 10:38:31;;;;;;;7.00;3.90;;;8.30;99.90;;;;;;5074767;28;20108;-61
2023/04/20 10:41:06;;;;;;;8.68;3.45;;;8.40;99.90;;;;;;5061677;28;20035;-61
2023/04/20 10:43:34;;;;;;;6.45;3.53;;;8.50;99.90;;;;;;5077577;28;20028;-62
2023/04/20 10:46:00;;;;;;;7.40;2.83;;;8.60;99.90;;;;;;5077769;28;20021;-62
2023/04/20 10:48:25;;;;;;;7.38;4.32;;;9.10;99.90;;;;;;5078633;28;20016;-62
2023/04/20 10:50:51;;;;;;;3.60;2.37;;;9.40;99.90;;;;;;5078875;28;20074;-62
2023/04/20 10:53:19;;;;;;;2.70;2.03;;;9.60;99.90;;;;;;5078618;28;20059;-61
2023/04/20 10:55:45;;;;;;;6.05;3.17;;;9.60;99.90;;;;;;5078536;28;20116;-62
2023/04/20 10:58:21;;;;;;;8.07;3.30;;;9.90;99.90;;;;;;5077258;28;20115;-74
2023/04/20 11:00:57;;;;;;;6.75;3.30;;;9.50;99.90;;;;;;5078159;28;20062;-62
2023/04/20 11:03:22;;;;;;;8.02;3.03;;;9.50;99.90;;;;;;5078556;28;20211;-62
2023/04/20 11:05:50;;;;;;;3.93;2.33;;;9.70;99.90;;;;;;5078292;28;20401;-62
2023/04/20 11:08:16;;;;;;;6.63;2.30;;;9.80;99.90;;;;;;5078569;28;20104;-62
2023/04/20 11:10:42;;;;;;;10.30;3.73;;;10.00;99.90;;;;;;5078221;28;20123;-70
2023/04/20 11:13:21;;;;;;;6.40;3.63;;;10.10;99.90;;;;;;5064482;28;20039;-62
2023/04/20 11:15:47;;;;;;;5.22;3.30;;;10.10;99.90;;;;;;5078631;28;20071;-62
2023/04/20 11:18:12;;;;;;;3.53;2.60;;;10.10;99.90;;;;;;5077719;28;20032;-62
2023/04/20 11:20:50;;;;;;;9.03;3.90;;;10.20;99.90;;;;;;5078012;28;20116;-62
2023/04/20 11:23:15;;;;;;;5.03;2.78;;;10.30;99.90;;;;;;5077453;28;20059;-63
2023/04/20 11:25:51;;;;;;;7.67;4.50;;;10.20;99.90;;;;;;5077116;28;20056;-62
2023/04/20 11:28:18;;;;;;;10.65;3.58;;;10.10;99.90;;;;;;5077132;28;20045;-61
2023/04/20 11:30:43;;;;;;;4.38;3.10;;;10.00;99.90;;;;;;5077950;28;20103;-61
2023/04/20 11:33:09;;;;;;;6.50;4.13;;;9.90;99.90;;;;;;5077832;28;20108;-62
2023/04/20 11:35:37;;;;;;;7.10;3.73;;;9.90;99.90;;;;;;5078108;28;20028;-62
2023/04/20 11:38:03;;;;;;;9.82;4.32;;;10.10;99.90;;;;;;5078187;28;20346;-63
2023/04/20 11:40:29;;;;;;;6.33;3.13;;;10.00;99.90;;;;;;5077359;28;20021;-62
2023/04/20 11:42:54;;;;;;;7.73;4.40;;;9.90;99.90;;;;;;5077682;28;20023;-73
2023/04/20 11:45:20;;;;;;;4.43;3.17;;;10.10;99.90;;;;;;5077474;28;20783;-61
2023/04/20 11:47:46;;;;;;;8.15;3.10;;;10.10;99.90;;;;;;5077632;28;20016;-61
2023/04/20 11:50:13;;;;;;;9.30;2.85;;;10.30;99.90;;;;;;5077542;28;20070;-63
2023/04/20 11:52:38;;;;;;;7.10;4.30;;;10.30;99.90;;;;;;5077088;28;20024;-61
2023/04/20 11:55:05;;;;;;;5.30;0.57;;;10.20;99.90;;;;;;5076917;28;20029;-62
2023/04/20 11:57:30;;;;;;;8.88;3.22;;;10.10;99.90;;;;;;5077047;28;20495;-62
2023/04/20 11:59:56;;;;;;;4.80;3.40;;;10.00;99.90;;;;;;5077470;28;20039;-61
2023/04/20 12:02:22;;;;;;;7.73;4.40;;;9.90;99.90;;;;;;5077229;28;20108;-62
2023/04/20 12:04:47;;;;;;;8.97;4.37;;;9.80;99.90;;;;;;5077166;28;20058;-62
2023/04/20 12:07:13;;;;;;;4.80;3.20;;;9.90;99.90;;;;;;5077364;28;20029;-62
2023/04/20 12:09:39;;;;;;;7.63;3.38;;;10.00;99.90;;;;;;5076863;28;20127;-74
2023/04/20 12:12:05;;;;;;;6.37;2.87;;;10.10;99.90;;;;;;5074902;28;20059;-62
2023/04/20 12:14:34;;;;;;;3.00;2.53;;;10.30;99.90;;;;;;5076274;28;20028;-61
2023/04/20 12:17:01;;;;;;;8.75;4.93;;;10.40;99.90;;;;;;5076519;28;20054;-73
2023/04/20 12:19:27;;;;;;;4.13;2.88;;;10.50;99.90;;;;;;5076082;28;20475;-62
2023/04/20 12:21:52;;;;;;;4.43;3.03;;;10.70;99.90;;;;;;5076403;28;20036;-61
2023/04/20 12:24:18;;;;;;;3.07;1.87;;;10.60;99.90;;;;;;5076335;28;20037;-62
2023/04/20 12:26:44;;;;;;;8.03;3.37;;;10.40;99.90;;;;;;5074884;28;20356;-62
2023/04/20 12:29:10;;;;;;;7.07;4.05;;;10.10;99.90;;;;;;5075895;28;20048;-74
2023/04/20 12:31:36;;;;;;;7.40;4.40;;;9.90;99.90;;;;;;5075563;28;20025;-62
2023/04/20 12:34:02;;;;;;;7.50;4.70;;;10.00;99.90;;;;;;5076078;28;20472;-61
2023/04/20 12:36:27;;;;;;;9.27;4.90;;;9.90;99.90;;;;;;5076415;28;20067;-62
2023/04/20 12:38:54;;;;;;;7.50;4.73;;;10.00;99.90;;;;;;5075802;28;20020;-61
2023/04/20 12:41:21;;;;;;;;;;;10.00;99.90;;;;;;5076894;28;20063;-61
2023/04/20 12:43:48;;;;;;;9.85;4.00;;;10.00;99.90;;;;;;5076409;28;19912;-61
2023/04/20 12:46:14;;;;;;;7.13;4.90;;;10.00;99.90;;;;;;5076635;28;20027;-62
2023/04/20 12:48:40;;;;;;;7.10;4.40;;;10.00;99.90;;;;;;5076184;28;20024;-62
2023/04/20 12:51:06;;;;;;;5.95;3.53;;;10.10;99.90;;;;;;5076804;28;20036;-62
2023/04/20 12:53:31;;;;;;;5.20;3.85;;;10.20;99.90;;;;;;5076364;28;20047;-62
2023/04/20 12:55:58;;;;;;;9.00;4.83;;;10.40;99.90;;;;;;5074905;28;20327;-61